Startpagina
METAR-TAF:

METAR-TAF

Vliegvelden :

Orange, Frankrijk

breedte: 44-08N, lengte: 004-50E, hoogte: 60 m

Actueel weer

Dit bericht is 39 minuten geleden gemaakt, om 04:00 UTC
Wind 15 kt uit het noordnoordwesten
Temperatuur 6°C
Vochtigheid 81%
Druk 1020 hPa
Zicht 10 km of meer
geen wolken onder 1500 m en geen cumulonimbus

METAR: LFMO 120400Z AUTO 33015KT CAVOK 06/03 Q1020 BECMG 35020G35KT

Tijdstip: 06:39 (04:39 UTC)

Verwachting

Dit bericht is 2 uur en het 39 minuten geleden gemaakt, om 02:00 UTC
Verwachting geldig van 12 om 03 UTC tot 13 om 03 UTC
Wind 20 kt uit het noorden met uitschieters tot 35 kt
Zicht 10 km of meer
geen wolken onder 1500 m en geen cumulonimbus
Tijdelijke
van 12 om 07 UTC tot 12 om 19 UTC
Wind 25 kt uit het noorden met uitschieters tot 40 kt

TAF: LFMO 120200Z 1203/1303 35020G35KT CAVOK TEMPO 1207/1219 35025G40KT

Waarnemingen en weersverwachtingen van meer dan 4000 vliegvelden (METAR en TAF).

De beschikbare stations zijn de gele en rode punten op de kaart.

Ga met uw muis naar het station om de naam te zien.

Klik dan om waarnemingen en weersverwachtingen te zien.

kaart wijzigen: klik op de groene knoppen met een zwart kruis om in te zoomen, op de groene knop met een streepje om uit te zoomen of op de groene pijlen voor aangrenzende kaarten.


METAR-TAF: